PWSweather.com
Personal Weather Stations
Station Observations
WISCHPK61
Green Bay Schmitt Park, Green Bay, WI 54311

Green Bay Schmitt ParkGreen Bay, WI 54311

Lat: 44.514277, Lon: -87.935067

Elevation: 735

Station Type: Acu Rite Pro Weather Center model 02032C

http://greenbayweathercam.com

High Low Average
Temperature 25.2°F-3.8°C 9.3°F-12.6°C 16.4°F-8.7°C
Dew Point 24.5°F-4.2°C 9.0°F-12.8°C 16.0°F-8.9°C
Winds Calm Calm Calm Calm Calm SWCalm SW
Wind Gusts -- -- --
Humidity 99% 95% 98%
Pressure 29.92 in1013.2 mb 29.55 in1000.7 mb -
Precipitation 0.00 in0.0 mm - -
Hour Temp Dew Point Humidity Winds Wind Gusts Pressure Precip Precip Rate Daily Precip Total
12:00 AM 9.0°F-12.8°C 8.8°F-12.9°C 99% Calm Calm -- 29.91 in1012.9 mb - 0.00 in0.0 mm 0.00 in0.0 mm
01:00 AM 9.3°F-12.6°C 9.1°F-12.7°C 99% Calm Calm -- 29.92 in1013.2 mb - 0.00 in0.0 mm 0.00 in0.0 mm
02:00 AM 9.5°F-12.5°C 9.0°F-12.8°C 98% Calm Calm -- 29.91 in1012.9 mb - 0.00 in0.0 mm 0.00 in0.0 mm
03:00 AM 9.9°F-12.3°C 9.7°F-12.4°C 99% Calm Calm -- 29.89 in1012.2 mb - 0.00 in0.0 mm 0.00 in0.0 mm
04:00 AM 9.7°F-12.4°C 9.5°F-12.5°C 99% Calm Calm -- 29.85 in1010.8 mb - 0.00 in0.0 mm 0.00 in0.0 mm
05:00 AM 9.9°F-12.3°C 9.4°F-12.6°C 98% Calm Calm -- 29.82 in1009.8 mb - 0.00 in0.0 mm 0.00 in0.0 mm
06:00 AM 10.4°F-12.0°C 10.2°F-12.1°C 99% Calm Calm -- 29.81 in1009.5 mb - 0.00 in0.0 mm 0.00 in0.0 mm
07:00 AM 10.8°F-11.8°C 10.6°F-11.9°C 99% Calm Calm -- 29.80 in1009.1 mb - 0.00 in0.0 mm 0.00 in0.0 mm
08:00 AM 11.3°F-11.5°C 10.8°F-11.8°C 98% Calm Calm -- 29.78 in1008.5 mb - 0.00 in0.0 mm 0.00 in0.0 mm
09:00 AM 12.2°F-11.0°C 11.7°F-11.3°C 98% Calm Calm -- 29.77 in1008.1 mb - 0.00 in0.0 mm 0.00 in0.0 mm
10:00 AM 13.5°F-10.3°C 13.3°F-10.4°C 99% Calm Calm -- 29.75 in1007.5 mb - 0.00 in0.0 mm 0.00 in0.0 mm
11:00 AM 15.4°F-9.2°C 15.2°F-9.3°C 99% Calm Calm -- 29.74 in1007.1 mb - 0.00 in0.0 mm 0.00 in0.0 mm
12:00 PM 18.8°F-7.3°C 18.4°F-7.6°C 98% Calm Calm -- 29.70 in1005.8 mb - 0.00 in0.0 mm 0.00 in0.0 mm
01:00 PM 19.2°F-7.1°C 18.9°F-7.3°C 99% Calm Calm -- 29.71 in1006.1 mb - 0.00 in0.0 mm 0.00 in0.0 mm
02:00 PM 20.1°F-6.6°C 19.9°F-6.7°C 99% Calm Calm -- 29.66 in1004.4 mb - 0.00 in0.0 mm 0.00 in0.0 mm
03:00 PM 25.2°F-3.8°C 24.5°F-4.2°C 97% Calm Calm -- 29.63 in1003.4 mb - 0.00 in0.0 mm 0.00 in0.0 mm
04:00 PM 24.6°F-4.1°C 23.4°F-4.8°C 95% Calm Calm -- 29.61 in1002.7 mb - 0.00 in0.0 mm 0.00 in0.0 mm
05:00 PM 24.3°F-4.3°C 24.1°F-4.4°C 99% Calm Calm -- 29.59 in1002.0 mb - 0.00 in0.0 mm 0.00 in0.0 mm
06:00 PM 22.1°F-5.5°C 21.9°F-5.6°C 99% Calm Calm -- 29.56 in1001.0 mb - 0.00 in0.0 mm 0.00 in0.0 mm
07:00 PM 21.0°F-6.1°C 20.5°F-6.4°C 98% Calm Calm -- 29.56 in1001.0 mb - 0.00 in0.0 mm 0.00 in0.0 mm
08:00 PM 20.7°F-6.3°C 20.5°F-6.4°C 99% Calm Calm -- 29.56 in1001.0 mb - 0.00 in0.0 mm 0.00 in0.0 mm
09:00 PM 19.9°F-6.7°C 19.7°F-6.8°C 99% Calm Calm -- 29.56 in1001.0 mb - 0.00 in0.0 mm 0.00 in0.0 mm
10:00 PM 19.0°F-7.2°C 18.5°F-7.5°C 98% Calm Calm -- 29.55 in1000.7 mb - 0.00 in0.0 mm 0.00 in0.0 mm
11:00 PM 18.5°F-7.5°C 18.0°F-7.8°C 98% Calm Calm -- 29.56 in1001.0 mb - 0.00 in0.0 mm 0.00 in0.0 mm